createdAt,value
2019-02-27T00:02:06.369Z,45.13
2019-02-27T00:04:35.658Z,51.27
2019-02-27T00:07:05.038Z,42.60
2019-02-27T00:09:35.277Z,41.63
2019-02-27T00:12:04.304Z,45.50
2019-02-27T00:14:33.267Z,42.47
2019-02-27T00:17:02.337Z,40.83
2019-02-27T00:19:31.931Z,44.37
2019-02-27T00:22:01.055Z,47.23
2019-02-27T00:24:30.614Z,47.13
2019-02-27T00:26:59.679Z,44.30
2019-02-27T00:29:28.988Z,39.03
2019-02-27T00:32:00.127Z,38.67
2019-02-27T00:34:32.837Z,44.50
2019-02-27T00:36:59.474Z,43.60
2019-02-27T00:39:30.832Z,47.27
2019-02-27T00:41:59.245Z,41.93
2019-02-27T00:44:28.409Z,41.77
2019-02-27T00:46:57.506Z,47.80
2019-02-27T00:49:26.050Z,38.53
2019-02-27T00:51:55.199Z,43.63
2019-02-27T00:54:24.216Z,40.77
2019-02-27T00:56:53.400Z,43.83
2019-02-27T00:59:22.473Z,39.60
2019-02-27T01:01:51.568Z,43.70
2019-02-27T01:04:20.657Z,45.10
2019-02-27T01:06:49.623Z,41.03
2019-02-27T01:09:18.632Z,39.30
2019-02-27T01:11:51.501Z,38.83
2019-02-27T01:14:18.701Z,39.30
2019-02-27T01:16:49.946Z,40.03
2019-02-27T01:19:18.526Z,46.43
2019-02-27T01:21:46.988Z,44.10
2019-02-27T01:24:17.557Z,42.47
2019-02-27T01:26:46.298Z,42.87
2019-02-27T01:29:15.689Z,43.40
2019-02-27T01:31:46.480Z,42.20
2019-02-27T01:34:15.517Z,43.00
2019-02-27T01:36:44.417Z,40.03
2019-02-27T01:39:13.514Z,45.53
2019-02-27T01:41:42.590Z,39.77
2019-02-27T01:44:13.654Z,40.23
2019-02-27T01:46:42.379Z,44.17
2019-02-27T01:49:11.269Z,43.57
2019-02-27T01:51:40.304Z,44.00
2019-02-27T01:54:09.336Z,41.93
2019-02-27T01:56:37.869Z,40.23
2019-02-27T01:59:06.865Z,43.97
2019-02-27T02:01:35.897Z,44.23
2019-02-27T02:04:04.882Z,40.63
2019-02-27T02:06:33.823Z,39.97
2019-02-27T02:09:29.648Z,40.57
2019-02-27T02:11:58.728Z,44.23
2019-02-27T02:15:15.816Z,39.50
2019-02-27T02:18:22.456Z,42.00
2019-02-27T02:21:04.710Z,44.73
2019-02-27T02:24:09.840Z,40.87
2019-02-27T02:26:51.896Z,43.27
2019-02-27T02:29:54.693Z,41.50
2019-02-27T02:32:41.192Z,42.87
2019-02-27T02:35:33.848Z,55.50
2019-02-27T02:38:52.305Z,40.20
2019-02-27T02:41:48.069Z,41.90
2019-02-27T02:44:45.301Z,42.10
2019-02-27T02:47:55.896Z,40.20
2019-02-27T02:50:57.998Z,42.47
2019-02-27T02:54:02.966Z,40.20
2019-02-27T02:56:50.762Z,40.67
2019-02-27T02:59:48.838Z,43.67
2019-02-27T03:02:47.232Z,46.30
2019-02-27T03:05:26.300Z,40.07
2019-02-27T03:08:10.665Z,39.90
2019-02-27T03:10:53.136Z,48.90
2019-02-27T03:13:41.868Z,40.87
2019-02-27T03:16:15.661Z,45.17
2019-02-27T03:19:16.546Z,46.03
2019-02-27T03:22:23.798Z,41.93
2019-02-27T03:25:24.273Z,44.90
2019-02-27T03:28:55.607Z,44.30
2019-02-27T03:32:05.050Z,40.70
2019-02-27T03:34:59.000Z,42.20
2019-02-27T03:37:38.574Z,41.90
2019-02-27T03:41:00.793Z,43.03
2019-02-27T03:44:26.667Z,37.47
2019-02-27T03:47:25.396Z,45.63
2019-02-27T03:50:28.601Z,40.67
2019-02-27T03:53:24.934Z,39.07
2019-02-27T03:56:43.470Z,40.17
2019-02-27T04:00:10.458Z,43.00
2019-02-27T04:03:19.711Z,41.67
2019-02-27T04:06:12.749Z,45.13
2019-02-27T04:08:56.580Z,46.73
2019-02-27T04:11:25.826Z,41.03
2019-02-27T04:13:55.285Z,43.73
2019-02-27T04:16:28.863Z,43.03
2019-02-27T04:19:03.018Z,50.43
2019-02-27T04:21:28.541Z,46.40
2019-02-27T04:23:57.075Z,46.47
2019-02-27T04:26:26.058Z,43.47
2019-02-27T04:28:55.092Z,41.13
2019-02-27T04:31:23.967Z,46.17
2019-02-27T04:33:52.826Z,51.80
2019-02-27T04:36:21.817Z,40.63
2019-02-27T04:38:50.809Z,39.93
2019-02-27T04:41:19.822Z,45.30
2019-02-27T04:43:48.708Z,44.83
2019-02-27T04:46:18.939Z,43.70
2019-02-27T04:48:48.345Z,40.20
2019-02-27T04:51:17.730Z,52.33
2019-02-27T04:53:46.821Z,45.70
2019-02-27T04:56:15.890Z,38.07
2019-02-27T04:58:44.977Z,39.63
2019-02-27T05:01:13.496Z,40.50
2019-02-27T05:03:42.461Z,56.50
2019-02-27T05:06:12.030Z,42.20
2019-02-27T05:08:41.720Z,41.67
2019-02-27T05:11:13.958Z,41.97
2019-02-27T05:13:41.720Z,47.73
2019-02-27T05:16:13.880Z,45.60
2019-02-27T05:18:41.533Z,39.03
2019-02-27T05:21:10.499Z,44.73
2019-02-27T05:23:39.697Z,42.20
2019-02-27T05:26:08.799Z,46.40
2019-02-27T05:28:37.327Z,47.67
2019-02-27T05:31:06.472Z,41.90
2019-02-27T05:33:37.665Z,40.77
2019-02-27T05:36:06.868Z,42.50
2019-02-27T05:38:35.819Z,42.17
2019-02-27T05:41:04.785Z,37.50
2019-02-27T05:43:33.855Z,37.17
2019-02-27T05:46:03.259Z,41.53
2019-02-27T05:48:32.636Z,44.37
2019-02-27T05:51:01.689Z,44.73
2019-02-27T05:53:31.029Z,40.50
2019-02-27T05:56:00.022Z,45.93
2019-02-27T05:58:29.065Z,41.20
2019-02-27T06:00:58.105Z,41.83
2019-02-27T06:03:27.097Z,42.40
2019-02-27T06:05:56.170Z,41.50
2019-02-27T06:08:25.151Z,46.07
2019-02-27T06:10:56.039Z,46.20
2019-02-27T06:13:25.119Z,44.40
2019-02-27T06:15:54.127Z,45.47
2019-02-27T06:18:23.768Z,45.37
2019-02-27T06:20:52.613Z,43.57
2019-02-27T06:23:21.579Z,45.27
2019-02-27T06:25:50.632Z,41.97
2019-02-27T06:28:19.433Z,43.50
2019-02-27T06:30:49.041Z,50.20
2019-02-27T06:33:18.139Z,48.27
2019-02-27T06:35:46.676Z,41.33
2019-02-27T06:38:15.201Z,44.60
2019-02-27T06:40:43.935Z,46.53
2019-02-27T06:43:12.481Z,50.83
2019-02-27T06:45:45.574Z,39.30
2019-02-27T06:48:12.235Z,37.90
2019-02-27T06:50:41.229Z,38.97
2019-02-27T06:53:15.521Z,40.20
2019-02-27T06:55:43.793Z,38.73
2019-02-27T06:58:14.824Z,40.60
2019-02-27T07:00:43.454Z,46.53
2019-02-27T07:03:12.410Z,43.13
2019-02-27T07:05:41.485Z,44.50
2019-02-27T07:08:10.553Z,40.00
2019-02-27T07:10:39.116Z,39.70
2019-02-27T07:13:08.182Z,40.07
2019-02-27T07:15:38.037Z,39.37
2019-02-27T07:18:07.072Z,38.87
2019-02-27T07:20:35.593Z,39.07
2019-02-27T07:23:04.556Z,39.40
2019-02-27T07:25:33.869Z,40.30
2019-02-27T07:28:03.505Z,37.50
2019-02-27T07:30:32.685Z,40.57
2019-02-27T07:33:03.732Z,44.87
2019-02-27T07:35:32.621Z,40.83
2019-02-27T07:38:01.560Z,40.07
2019-02-27T07:40:30.750Z,38.43
2019-02-27T07:42:59.985Z,38.87
2019-02-27T07:45:29.070Z,41.90
2019-02-27T07:47:58.158Z,40.97
2019-02-27T07:50:27.238Z,41.60
2019-02-27T07:52:56.232Z,41.10
2019-02-27T07:55:28.361Z,38.20
2019-02-27T07:57:58.682Z,39.97
2019-02-27T08:00:27.094Z,40.03
2019-02-27T08:02:56.102Z,40.13
2019-02-27T08:05:28.321Z,40.47
2019-02-27T08:07:55.852Z,40.90
2019-02-27T08:10:24.908Z,39.23
2019-02-27T08:12:56.452Z,44.30
2019-02-27T08:15:25.519Z,40.47
2019-02-27T08:17:57.992Z,38.10
2019-02-27T08:20:26.146Z,40.07
2019-02-27T08:22:55.137Z,42.40
2019-02-27T08:25:24.190Z,41.87
2019-02-27T08:27:54.345Z,44.07
2019-02-27T08:30:23.432Z,45.00
2019-02-27T08:32:52.639Z,38.77
2019-02-27T08:35:21.824Z,40.97
2019-02-27T08:37:50.801Z,38.23
2019-02-27T08:40:24.050Z,44.50
2019-02-27T08:42:49.967Z,41.40
2019-02-27T08:45:20.683Z,46.70
2019-02-27T08:47:49.826Z,41.60
2019-02-27T08:50:18.818Z,45.13
2019-02-27T08:52:50.830Z,44.93
2019-02-27T08:55:21.947Z,44.13
2019-02-27T08:57:49.914Z,41.33
2019-02-27T09:00:23.055Z,45.10
2019-02-27T09:02:51.671Z,39.60
2019-02-27T09:05:21.878Z,42.93
2019-02-27T09:07:50.826Z,45.90
2019-02-27T09:10:19.990Z,43.00
2019-02-27T09:12:49.533Z,42.30
2019-02-27T09:15:19.833Z,41.30
2019-02-27T09:17:48.841Z,45.93
2019-02-27T09:20:19.685Z,42.13
2019-02-27T09:22:48.424Z,42.60
2019-02-27T09:25:17.511Z,43.50
2019-02-27T09:27:46.557Z,45.63
2019-02-27T09:30:15.961Z,42.90
2019-02-27T09:32:46.130Z,45.60
2019-02-27T09:35:15.309Z,41.77
2019-02-27T09:37:44.269Z,41.87
2019-02-27T09:40:15.430Z,46.37
2019-02-27T09:42:44.415Z,44.37
2019-02-27T09:45:38.623Z,40.73
2019-02-27T09:48:07.129Z,45.17
2019-02-27T09:50:37.877Z,43.77
2019-02-27T09:53:07.098Z,49.70
2019-02-27T09:55:35.850Z,43.67
2019-02-27T09:58:09.904Z,47.70
2019-02-27T10:00:40.739Z,43.30
2019-02-27T10:03:09.893Z,44.03
2019-02-27T10:05:40.730Z,44.10
2019-02-27T10:08:09.924Z,43.50
2019-02-27T10:10:42.429Z,41.40
2019-02-27T10:13:10.686Z,44.43
2019-02-27T10:15:39.203Z,39.43
2019-02-27T10:18:07.729Z,44.40
2019-02-27T10:20:37.234Z,46.63
2019-02-27T10:23:06.920Z,43.40
2019-02-27T10:25:35.943Z,58.37
2019-02-27T10:28:05.025Z,42.87
2019-02-27T10:30:34.073Z,43.77
2019-02-27T10:33:03.511Z,40.90
2019-02-27T10:35:34.693Z,43.73
2019-02-27T10:38:03.531Z,44.53
2019-02-27T10:40:32.561Z,47.13
2019-02-27T10:43:01.789Z,45.10
2019-02-27T10:45:30.780Z,45.37
2019-02-27T10:47:59.758Z,49.70
2019-02-27T10:50:28.866Z,41.10
2019-02-27T10:52:57.854Z,42.13
2019-02-27T10:55:27.167Z,41.77
2019-02-27T10:57:56.365Z,42.17
2019-02-27T11:00:32.180Z,40.77
2019-02-27T11:03:02.436Z,48.83
2019-02-27T11:05:32.389Z,40.70
2019-02-27T11:08:01.030Z,45.90
2019-02-27T11:10:30.070Z,46.30
2019-02-27T11:12:59.100Z,46.30
2019-02-27T11:15:28.097Z,39.47
2019-02-27T11:17:56.639Z,38.90
2019-02-27T11:20:25.650Z,42.13
2019-02-27T11:22:54.752Z,46.13
2019-02-27T11:25:25.449Z,45.40
2019-02-27T11:27:54.457Z,40.60
2019-02-27T11:30:25.921Z,39.10
2019-02-27T11:32:57.882Z,39.93
2019-02-27T11:35:26.053Z,42.40
2019-02-27T11:37:55.063Z,41.23
2019-02-27T11:40:25.489Z,41.00
2019-02-27T11:42:54.673Z,40.53
2019-02-27T11:45:24.554Z,45.00
2019-02-27T11:47:54.075Z,46.37
2019-02-27T11:50:23.082Z,40.30
2019-02-27T11:52:52.204Z,39.67
2019-02-27T11:55:21.277Z,37.80
2019-02-27T11:57:50.369Z,36.90
2019-02-27T12:00:23.565Z,36.10
2019-02-27T12:02:52.809Z,36.50
2019-02-27T12:05:21.788Z,37.57
2019-02-27T12:07:51.758Z,35.57
2019-02-27T12:10:22.078Z,46.30
2019-02-27T12:12:51.140Z,44.27
2019-02-27T12:15:20.377Z,37.20
2019-02-27T12:17:49.843Z,36.33
2019-02-27T12:20:19.375Z,37.77
2019-02-27T12:22:48.300Z,35.53
2019-02-27T12:25:17.224Z,37.77
2019-02-27T12:27:49.834Z,36.37
2019-02-27T12:30:18.326Z,37.43
2019-02-27T12:32:47.459Z,35.53
2019-02-27T12:35:18.957Z,32.77
2019-02-27T12:37:47.978Z,33.80
2019-02-27T12:40:17.297Z,35.80
2019-02-27T12:42:46.332Z,31.20
2019-02-27T12:45:17.204Z,32.33
2019-02-27T12:47:46.338Z,33.23
2019-02-27T12:50:17.295Z,28.80
2019-02-27T12:52:48.101Z,26.70
2019-02-27T12:55:17.093Z,30.37
2019-02-27T12:57:46.043Z,30.93
2019-02-27T13:00:17.680Z,30.27
2019-02-27T13:02:46.205Z,32.40
2019-02-27T13:05:15.694Z,28.83
2019-02-27T13:07:45.465Z,32.20
2019-02-27T13:10:18.772Z,32.37
2019-02-27T13:12:49.234Z,29.63
2019-02-27T13:15:19.905Z,33.20
2019-02-27T13:17:48.954Z,30.17
2019-02-27T13:20:18.578Z,30.10
2019-02-27T13:22:47.720Z,30.57
2019-02-27T13:25:16.687Z,30.70
2019-02-27T13:27:45.737Z,35.23
2019-02-27T13:30:15.900Z,30.87
2019-02-27T13:32:44.573Z,32.30
2019-02-27T13:35:13.138Z,34.20
2019-02-27T13:37:44.674Z,34.50
2019-02-27T13:40:15.756Z,33.50
2019-02-27T13:42:44.721Z,30.17
2019-02-27T13:45:17.280Z,32.40
2019-02-27T13:47:45.844Z,30.77
2019-02-27T13:50:16.775Z,31.37
2019-02-27T13:52:49.631Z,32.90
2019-02-27T13:55:18.523Z,30.43
2019-02-27T13:57:47.055Z,28.37
2019-02-27T14:00:25.854Z,29.77
2019-02-27T14:02:54.397Z,30.53
2019-02-27T14:05:23.501Z,28.80
2019-02-27T14:07:57.271Z,31.63
2019-02-27T14:10:23.505Z,30.30
2019-02-27T14:12:52.571Z,30.03
2019-02-27T14:15:26.793Z,28.00
2019-02-27T14:17:52.620Z,30.53
2019-02-27T14:20:21.718Z,28.87
2019-02-27T14:22:50.813Z,30.13
2019-02-27T14:25:21.696Z,29.80
2019-02-27T14:27:50.752Z,29.97
2019-02-27T14:30:21.872Z,31.67
2019-02-27T14:32:50.577Z,31.10
2019-02-27T14:35:19.544Z,30.80
2019-02-27T14:37:50.221Z,30.10
2019-02-27T14:40:20.213Z,31.27
2019-02-27T14:42:54.017Z,32.37
2019-02-27T14:45:20.932Z,29.13
2019-02-27T14:47:49.911Z,30.80
2019-02-27T14:50:20.013Z,33.57
2019-02-27T14:52:50.043Z,33.60
2019-02-27T14:55:20.765Z,32.07
2019-02-27T14:57:51.059Z,30.70
2019-02-27T15:00:24.421Z,32.63
2019-02-27T15:02:55.552Z,31.53
2019-02-27T15:05:23.915Z,31.23
2019-02-27T15:07:54.598Z,33.83
2019-02-27T15:10:23.892Z,39.83
2019-02-27T15:12:54.981Z,36.43
2019-02-27T15:15:25.500Z,33.07
2019-02-27T15:17:54.282Z,32.00
2019-02-27T15:20:24.089Z,30.87
2019-02-27T15:22:53.745Z,31.00
2019-02-27T15:25:22.967Z,42.07
2019-02-27T15:27:52.094Z,33.23
2019-02-27T15:30:23.961Z,32.97
2019-02-27T15:32:53.029Z,32.30
2019-02-27T15:35:22.335Z,33.57
2019-02-27T15:37:51.717Z,30.07
2019-02-27T15:40:22.864Z,35.57
2019-02-27T15:42:52.181Z,32.00
2019-02-27T15:45:21.684Z,33.70
2019-02-27T15:47:50.704Z,29.90
2019-02-27T15:50:22.707Z,34.17
2019-02-27T15:52:50.787Z,35.13
2019-02-27T15:55:19.785Z,32.30
2019-02-27T15:57:52.096Z,32.10
2019-02-27T16:00:21.144Z,32.97
2019-02-27T16:02:50.294Z,32.20
2019-02-27T16:05:19.447Z,32.97
2019-02-27T16:07:49.668Z,34.17
2019-02-27T16:10:20.351Z,33.37
2019-02-27T16:12:49.397Z,31.67
2019-02-27T16:15:18.461Z,31.53
2019-02-27T16:17:48.443Z,37.43
2019-02-27T16:20:19.026Z,33.40
2019-02-27T16:22:48.194Z,36.47
2019-02-27T16:25:20.203Z,34.97
2019-02-27T16:27:49.497Z,35.83
2019-02-27T16:30:25.009Z,37.37
2019-02-27T16:32:53.532Z,38.03
2019-02-27T16:35:22.555Z,31.10
2019-02-27T16:37:56.314Z,35.17
2019-02-27T16:40:22.483Z,40.57
2019-02-27T16:42:51.578Z,41.23
2019-02-27T16:45:23.974Z,32.93
2019-02-27T16:47:54.062Z,37.10
2019-02-27T16:50:27.258Z,30.60
2019-02-27T16:52:55.801Z,34.77
2019-02-27T16:55:25.175Z,33.73
2019-02-27T16:57:56.620Z,35.93
2019-02-27T17:00:28.813Z,31.07
2019-02-27T17:02:58.174Z,34.40
2019-02-27T17:05:27.392Z,37.27
2019-02-27T17:08:00.381Z,31.07
2019-02-27T17:10:29.561Z,32.80
2019-02-27T17:12:58.259Z,34.80
2019-02-27T17:15:27.381Z,31.00
2019-02-27T17:17:56.509Z,36.27
2019-02-27T17:20:25.867Z,31.13
2019-02-27T17:22:54.937Z,46.20
2019-02-27T17:25:28.911Z,30.83
2019-02-27T17:27:55.104Z,31.70
2019-02-27T17:30:26.000Z,31.50
2019-02-27T17:32:54.609Z,31.83
2019-02-27T17:35:24.221Z,30.77
2019-02-27T17:37:53.581Z,35.77
2019-02-27T17:40:22.892Z,42.20
2019-02-27T17:42:53.553Z,35.17
2019-02-27T17:45:22.997Z,35.37
2019-02-27T17:47:51.996Z,33.90
2019-02-27T17:50:21.133Z,33.10
2019-02-27T17:52:50.246Z,35.30
2019-02-27T17:55:18.893Z,39.30
2019-02-27T17:57:50.366Z,35.23
2019-02-27T18:00:25.120Z,31.50
2019-02-27T18:02:53.890Z,34.83
2019-02-27T18:05:25.443Z,43.67
2019-02-27T18:07:53.726Z,39.80
2019-02-27T18:10:22.888Z,36.30
2019-02-27T18:12:51.965Z,34.73
2019-02-27T18:15:22.121Z,36.33
2019-02-27T18:17:51.205Z,39.93
2019-02-27T18:20:24.152Z,37.33
2019-02-27T18:22:50.791Z,39.47
2019-02-27T18:25:19.883Z,40.30
2019-02-27T18:27:49.045Z,32.90
2019-02-27T18:30:18.856Z,36.40
2019-02-27T18:32:48.742Z,37.30
2019-02-27T18:35:17.936Z,37.07
2019-02-27T18:37:47.020Z,35.10
2019-02-27T18:40:15.519Z,35.20
2019-02-27T18:42:44.128Z,41.10
2019-02-27T18:45:15.349Z,36.30
2019-02-27T18:47:45.184Z,36.97
2019-02-27T18:50:14.357Z,37.00
2019-02-27T18:52:43.526Z,36.60
2019-02-27T18:55:12.803Z,38.60
2019-02-27T18:57:45.686Z,36.10
2019-02-27T19:00:22.318Z,34.50
2019-02-27T19:02:52.246Z,37.87
2019-02-27T19:05:22.378Z,34.87
2019-02-27T19:07:55.009Z,41.07
2019-02-27T19:10:23.166Z,33.67
2019-02-27T19:12:51.749Z,38.53
2019-02-27T19:15:22.154Z,38.07
2019-02-27T19:17:51.638Z,37.53
2019-02-27T19:20:24.850Z,38.87
2019-02-27T19:22:54.191Z,38.60
2019-02-27T19:25:23.305Z,39.60
2019-02-27T19:27:54.109Z,37.50
2019-02-27T19:30:23.397Z,39.80
2019-02-27T19:32:57.845Z,37.43
2019-02-27T19:35:23.474Z,38.73
2019-02-27T19:37:58.178Z,44.47
2019-02-27T19:40:30.457Z,38.43
2019-02-27T19:43:01.239Z,45.40
2019-02-27T19:45:30.404Z,38.33
2019-02-27T19:47:59.469Z,42.73
2019-02-27T19:50:28.791Z,44.70
2019-02-27T19:53:03.398Z,47.90
2019-02-27T19:55:28.236Z,43.37
2019-02-27T19:57:57.329Z,42.00
2019-02-27T20:00:33.771Z,44.30
2019-02-27T20:03:01.186Z,40.77
2019-02-27T20:05:29.516Z,44.43
2019-02-27T20:07:58.284Z,43.53
2019-02-27T20:10:30.877Z,46.20
2019-02-27T20:12:58.230Z,48.40
2019-02-27T20:15:27.410Z,54.47
2019-02-27T20:17:56.529Z,48.93
2019-02-27T20:20:25.978Z,42.47
2019-02-27T20:22:58.517Z,45.03
2019-02-27T20:25:27.444Z,40.50
2019-02-27T20:27:57.991Z,44.53
2019-02-27T20:30:27.463Z,46.20
2019-02-27T20:32:56.139Z,45.87
2019-02-27T20:35:25.209Z,40.70
2019-02-27T20:37:54.326Z,47.77
2019-02-27T20:40:22.924Z,47.07
2019-02-27T20:42:54.852Z,45.67
2019-02-27T20:45:22.769Z,48.10
2019-02-27T20:47:57.836Z,42.70
2019-02-27T20:50:34.492Z,45.03
2019-02-27T20:52:57.505Z,41.80
2019-02-27T20:55:26.771Z,48.80
2019-02-27T20:57:55.933Z,49.77
2019-02-27T21:00:25.822Z,43.37
2019-02-27T21:09:00.218Z,44.60
2019-02-27T21:14:55.152Z,48.13
2019-02-27T21:26:25.181Z,41.87
2019-02-27T21:29:12.926Z,48.43
2019-02-27T21:32:01.605Z,43.40
2019-02-27T21:34:54.751Z,44.60
2019-02-27T21:37:44.619Z,43.73
2019-02-27T21:40:11.537Z,41.33
2019-02-27T21:42:40.967Z,44.00
2019-02-27T21:45:12.468Z,47.57
2019-02-27T21:47:41.482Z,45.10
2019-02-27T21:50:11.755Z,40.67
2019-02-27T21:52:42.628Z,42.93
2019-02-27T21:55:12.991Z,45.33
2019-02-27T21:57:42.530Z,51.43
2019-02-27T22:00:13.937Z,48.73
2019-02-27T22:02:43.770Z,42.87
2019-02-27T22:05:18.338Z,49.33
2019-02-27T22:07:43.073Z,45.63
2019-02-27T22:10:12.593Z,47.10
2019-02-27T22:12:41.648Z,49.87
2019-02-27T22:15:15.112Z,47.53
2019-02-27T22:17:44.192Z,51.10
2019-02-27T22:20:13.366Z,47.43
2019-02-27T22:22:42.462Z,46.27
2019-02-27T22:25:11.549Z,46.03
2019-02-27T22:27:43.254Z,46.90
2019-02-27T22:30:15.818Z,46.33
2019-02-27T22:32:47.751Z,41.80
2019-02-27T22:35:15.436Z,48.67
2019-02-27T22:37:44.801Z,47.00
2019-02-27T22:40:15.173Z,53.90
2019-02-27T22:42:45.572Z,44.60
2019-02-27T22:45:15.666Z,43.17
2019-02-27T22:47:44.635Z,45.40
2019-02-27T22:50:14.838Z,43.97
2019-02-27T22:52:43.876Z,43.70
2019-02-27T22:55:13.007Z,47.53
2019-02-27T22:57:41.991Z,41.07
2019-02-27T23:00:44.105Z,51.13
2019-02-27T23:03:13.253Z,43.03
2019-02-27T23:05:42.325Z,45.43
2019-02-27T23:08:11.311Z,41.60
2019-02-27T23:10:40.441Z,42.13
2019-02-27T23:13:12.457Z,45.33
2019-02-27T23:15:40.463Z,41.50
2019-02-27T23:18:09.620Z,41.70
2019-02-27T23:20:38.731Z,47.57
2019-02-27T23:23:07.712Z,47.23
2019-02-27T23:25:36.728Z,59.03
2019-02-27T23:28:05.761Z,43.47
2019-02-27T23:30:34.758Z,58.43
2019-02-27T23:33:03.762Z,47.43
2019-02-27T23:35:32.786Z,39.97
2019-02-27T23:38:03.407Z,49.93
2019-02-27T23:40:32.537Z,44.60
2019-02-27T23:43:03.425Z,45.00
2019-02-27T23:45:32.204Z,47.00
2019-02-27T23:48:02.146Z,45.83
2019-02-27T23:50:32.292Z,53.00
2019-02-27T23:53:01.362Z,51.60
2019-02-27T23:55:29.929Z,47.30
2019-02-27T23:57:58.840Z,47.73
